createdAt,value
2018-05-16T00:02:14.556Z,12.40
2018-05-16T00:04:42.110Z,12.40
2018-05-16T00:07:09.671Z,12.40
2018-05-16T00:09:37.238Z,12.30
2018-05-16T00:12:04.799Z,12.40
2018-05-16T00:14:32.391Z,12.40
2018-05-16T00:17:00.714Z,12.30
2018-05-16T00:19:28.292Z,12.30
2018-05-16T00:21:55.855Z,12.30
2018-05-16T00:24:23.408Z,12.30
2018-05-16T00:26:52.221Z,12.40
2018-05-16T00:29:20.549Z,12.50
2018-05-16T00:31:48.129Z,12.40
2018-05-16T00:34:15.693Z,12.40
2018-05-16T00:36:43.249Z,12.40
2018-05-16T00:39:10.833Z,12.40
2018-05-16T00:41:38.383Z,12.40
2018-05-16T00:44:05.970Z,12.40
2018-05-16T00:46:34.290Z,12.30
2018-05-16T00:49:01.852Z,12.30
2018-05-16T00:51:32.202Z,12.30
2018-05-16T00:53:59.759Z,12.30
2018-05-16T00:56:27.342Z,12.40
2018-05-16T00:58:55.666Z,12.40
2018-05-16T01:01:23.236Z,12.30
2018-05-16T01:03:50.820Z,12.40
2018-05-16T01:06:18.365Z,12.30
2018-05-16T01:08:45.958Z,12.30
2018-05-16T01:11:14.282Z,12.30
2018-05-16T01:13:41.867Z,12.30
2018-05-16T01:16:09.441Z,12.30
2018-05-16T01:18:37.012Z,12.20
2018-05-16T01:21:05.356Z,12.10
2018-05-16T01:23:32.911Z,12.10
2018-05-16T01:26:00.470Z,12.00
2018-05-16T01:28:28.049Z,12.10
2018-05-16T01:30:55.598Z,12.10
2018-05-16T01:33:23.190Z,12.10
2018-05-16T01:35:51.516Z,12.00
2018-05-16T01:38:19.075Z,12.00
2018-05-16T01:40:46.646Z,12.10
2018-05-16T01:43:14.210Z,12.10
2018-05-16T01:45:41.799Z,12.10
2018-05-16T01:48:10.118Z,12.10
2018-05-16T01:50:37.677Z,12.10
2018-05-16T01:53:05.262Z,12.10
2018-05-16T01:55:32.822Z,12.20
2018-05-16T01:58:00.379Z,12.20
2018-05-16T02:00:27.959Z,12.20
2018-05-16T02:02:55.521Z,12.10
2018-05-16T02:05:23.080Z,12.10
2018-05-16T02:07:50.657Z,12.00
2018-05-16T02:10:18.966Z,12.10
2018-05-16T02:12:46.519Z,12.00
2018-05-16T02:15:14.093Z,12.10
2018-05-16T02:17:41.642Z,12.10
2018-05-16T02:20:09.196Z,12.10
2018-05-16T02:22:36.774Z,12.00
2018-05-16T02:25:04.334Z,12.00
2018-05-16T02:27:31.895Z,12.00
2018-05-16T02:29:59.478Z,12.00
2018-05-16T02:32:27.039Z,11.90
2018-05-16T02:34:54.598Z,11.90
2018-05-16T02:37:22.203Z,11.80
2018-05-16T02:39:49.772Z,11.80
2018-05-16T02:42:17.358Z,11.70
2018-05-16T02:44:44.913Z,11.80
2018-05-16T02:47:12.474Z,11.80
2018-05-16T02:49:40.056Z,11.80
2018-05-16T02:52:07.626Z,11.80
2018-05-16T02:54:35.183Z,11.80
2018-05-16T02:57:02.763Z,11.70
2018-05-16T02:59:31.889Z,11.70
2018-05-16T03:02:00.304Z,11.60
2018-05-16T03:04:27.868Z,11.60
2018-05-16T03:06:55.452Z,11.60
2018-05-16T03:09:23.000Z,11.50
2018-05-16T03:11:50.587Z,11.50
2018-05-16T03:14:18.911Z,11.60
2018-05-16T03:16:46.497Z,11.60
2018-05-16T03:19:14.055Z,11.50
2018-05-16T03:21:41.638Z,11.50
2018-05-16T03:24:09.952Z,11.50
2018-05-16T03:26:37.511Z,11.50
2018-05-16T03:29:05.093Z,11.60
2018-05-16T03:31:32.659Z,11.50
2018-05-16T03:34:00.213Z,11.50
2018-05-16T03:36:27.789Z,11.50
2018-05-16T03:38:55.340Z,11.50
2018-05-16T03:41:22.903Z,11.50
2018-05-16T03:43:50.479Z,11.50
2018-05-16T03:46:18.039Z,11.50
2018-05-16T03:48:46.375Z,11.60
2018-05-16T03:51:13.960Z,11.60
2018-05-16T03:53:41.529Z,11.60
2018-05-16T03:56:09.089Z,11.40
2018-05-16T03:58:48.566Z,11.50
2018-05-16T04:01:27.964Z,11.50
2018-05-16T04:04:19.318Z,11.40
2018-05-16T04:06:46.881Z,11.40
2018-05-16T04:09:14.433Z,11.40
2018-05-16T04:11:42.013Z,11.40
2018-05-16T04:14:09.571Z,11.40
2018-05-16T04:16:37.163Z,11.30
2018-05-16T04:19:04.720Z,11.30
2018-05-16T04:21:32.282Z,11.30
2018-05-16T04:23:59.875Z,11.30
2018-05-16T04:26:28.192Z,11.20
2018-05-16T04:28:55.790Z,11.20
2018-05-16T04:31:24.880Z,11.20
2018-05-16T04:33:52.451Z,11.30
2018-05-16T04:36:20.783Z,11.30
2018-05-16T04:38:48.381Z,11.30
2018-05-16T04:41:15.931Z,11.30
2018-05-16T04:43:43.481Z,11.30
2018-05-16T04:46:11.076Z,11.30
2018-05-16T04:48:39.626Z,11.40
2018-05-16T04:51:07.982Z,11.50
2018-05-16T04:53:52.699Z,11.40
2018-05-16T04:56:21.018Z,11.40
2018-05-16T04:58:48.577Z,11.40
2018-05-16T05:01:16.157Z,11.40
2018-05-16T05:03:43.709Z,11.40
2018-05-16T05:06:11.254Z,11.40
2018-05-16T05:08:38.846Z,11.40
2018-05-16T05:11:06.398Z,11.40
2018-05-16T05:13:33.954Z,11.50
2018-05-16T05:16:01.542Z,11.50
2018-05-16T05:18:29.181Z,11.50
2018-05-16T05:20:57.432Z,11.40
2018-05-16T05:23:25.010Z,11.40
2018-05-16T05:26:11.624Z,11.40
2018-05-16T05:28:39.313Z,11.50
2018-05-16T05:31:07.639Z,11.50
2018-05-16T05:33:35.180Z,11.50
2018-05-16T05:36:02.767Z,11.60
2018-05-16T05:38:30.344Z,11.80
2018-05-16T05:40:59.408Z,11.90
2018-05-16T05:46:32.366Z,11.90
2018-05-16T05:48:59.946Z,11.90
2018-05-16T05:51:27.496Z,11.90
2018-05-16T05:53:55.826Z,12.00
2018-05-16T05:56:23.407Z,12.00
2018-05-16T05:58:50.956Z,12.00
2018-05-16T06:01:18.537Z,12.00
2018-05-16T06:03:46.124Z,12.00
2018-05-16T06:06:14.636Z,12.00
2018-05-16T06:08:42.189Z,12.10
2018-05-16T06:11:09.777Z,12.00
2018-05-16T06:13:37.338Z,12.00
2018-05-16T06:16:04.895Z,12.10
2018-05-16T06:18:33.244Z,12.00
2018-05-16T06:21:00.793Z,12.00
2018-05-16T06:23:34.608Z,12.00
2018-05-16T06:26:02.193Z,12.00
2018-05-16T06:28:29.740Z,12.00
2018-05-16T06:30:57.336Z,12.00
2018-05-16T06:33:24.912Z,12.10
2018-05-16T06:35:53.233Z,12.10
2018-05-16T06:38:21.857Z,12.10
2018-05-16T06:40:49.402Z,12.10
2018-05-16T06:43:16.978Z,12.20
2018-05-16T06:45:45.352Z,12.40
2018-05-16T06:48:12.885Z,12.40
2018-05-16T06:50:40.455Z,12.60
2018-05-16T06:53:08.043Z,12.50
2018-05-16T06:55:36.366Z,12.50
2018-05-16T06:58:03.949Z,12.60
2018-05-16T07:00:32.384Z,12.60
2018-05-16T07:02:59.928Z,12.60
2018-05-16T07:05:35.182Z,12.50
2018-05-16T07:08:02.722Z,12.50
2018-05-16T07:10:31.048Z,12.60
2018-05-16T07:12:58.605Z,12.50
2018-05-16T07:15:26.178Z,12.50
2018-05-16T07:17:53.757Z,12.50
2018-05-16T07:20:21.306Z,12.40
2018-05-16T07:22:48.861Z,12.30
2018-05-16T07:25:16.449Z,12.40
2018-05-16T07:27:44.757Z,12.50
2018-05-16T07:30:12.316Z,12.50
2018-05-16T07:32:39.881Z,12.60
2018-05-16T07:35:07.444Z,12.70
2018-05-16T07:37:35.066Z,12.60
2018-05-16T07:40:02.714Z,12.60
2018-05-16T07:42:30.293Z,12.50
2018-05-16T07:44:58.645Z,12.50
2018-05-16T07:47:26.211Z,12.50
2018-05-16T07:49:53.776Z,12.50
2018-05-16T07:52:22.134Z,12.40
2018-05-16T07:55:03.793Z,12.30
2018-05-16T07:57:31.366Z,12.30
2018-05-16T07:59:58.914Z,12.30
2018-05-16T08:02:26.515Z,12.20
2018-05-16T08:04:54.100Z,12.20
2018-05-16T08:07:22.434Z,12.10
2018-05-16T08:09:49.999Z,12.10
2018-05-16T08:12:17.695Z,12.10
2018-05-16T08:14:45.211Z,12.10
2018-05-16T08:17:12.811Z,12.00
2018-05-16T08:19:41.129Z,11.80
2018-05-16T08:22:08.685Z,11.70
2018-05-16T08:24:36.258Z,11.80
2018-05-16T08:27:04.583Z,11.80
2018-05-16T08:29:32.906Z,11.90
2018-05-16T08:32:00.500Z,11.80
2018-05-16T08:34:28.060Z,12.00
2018-05-16T08:36:55.662Z,12.10
2018-05-16T08:39:23.249Z,12.20
2018-05-16T08:41:50.824Z,12.20
2018-05-16T08:44:18.454Z,12.30
2018-05-16T08:46:46.000Z,12.40
2018-05-16T08:49:13.561Z,12.30
2018-05-16T08:51:41.140Z,12.30
2018-05-16T08:54:08.695Z,12.40
2018-05-16T08:56:36.249Z,12.50
2018-05-16T08:59:03.826Z,12.50
2018-05-16T09:01:31.374Z,12.60
2018-05-16T09:03:58.961Z,12.60
2018-05-16T09:06:26.575Z,12.80
2018-05-16T09:08:56.050Z,12.70
2018-05-16T09:11:23.631Z,12.70
2018-05-16T09:13:52.505Z,12.90
2018-05-16T09:16:20.060Z,12.90
2018-05-16T09:18:47.649Z,13.00
2018-05-16T09:21:15.800Z,13.10
2018-05-16T09:23:44.124Z,13.30
2018-05-16T09:26:11.766Z,13.30
2018-05-16T09:28:39.343Z,13.40
2018-05-16T09:31:07.014Z,13.30
2018-05-16T09:33:34.589Z,13.20
2018-05-16T09:36:02.185Z,13.10
2018-05-16T09:38:30.537Z,13.00
2018-05-16T09:40:58.152Z,13.00
2018-05-16T09:43:25.699Z,12.90
2018-05-16T09:45:53.398Z,12.80
2018-05-16T09:48:20.999Z,12.90
2018-05-16T09:50:49.344Z,12.80
2018-05-16T09:53:16.930Z,12.80
2018-05-16T09:55:45.254Z,12.90
2018-05-16T09:58:12.873Z,12.90
2018-05-16T10:00:41.277Z,12.90
2018-05-16T10:03:08.826Z,12.90
2018-05-16T10:05:37.150Z,12.90
2018-05-16T10:08:04.784Z,12.90
2018-05-16T10:10:32.357Z,13.00
2018-05-16T10:12:59.924Z,13.10
2018-05-16T10:15:27.506Z,13.30
2018-05-16T10:17:55.076Z,13.50
2018-05-16T10:20:22.635Z,13.70
2018-05-16T10:22:50.223Z,13.80
2018-05-16T10:25:18.536Z,13.90
2018-05-16T10:27:46.102Z,13.90
2018-05-16T10:30:13.689Z,13.90
2018-05-16T10:32:41.265Z,14.10
2018-05-16T10:35:09.740Z,14.80
2018-05-16T10:37:38.096Z,15.10
2018-05-16T10:40:05.664Z,15.10
2018-05-16T10:42:35.021Z,15.10
2018-05-16T10:45:02.601Z,14.90
2018-05-16T10:47:30.165Z,14.70
2018-05-16T10:49:57.744Z,14.60
2018-05-16T10:52:25.289Z,14.80
2018-05-16T10:54:52.843Z,14.80
2018-05-16T10:57:20.470Z,14.80
2018-05-16T10:59:48.775Z,14.70
2018-05-16T11:02:16.328Z,14.70
2018-05-16T11:04:43.914Z,14.70
2018-05-16T11:07:12.369Z,14.50
2018-05-16T11:09:39.947Z,14.20
2018-05-16T11:12:07.535Z,13.90
2018-05-16T11:14:35.861Z,13.60
2018-05-16T11:17:03.429Z,13.60
2018-05-16T11:19:31.014Z,13.60
2018-05-16T11:21:58.588Z,13.60
2018-05-16T11:24:26.331Z,13.60
2018-05-16T11:26:54.735Z,13.40
2018-05-16T11:29:23.050Z,13.40
2018-05-16T11:31:50.633Z,13.40
2018-05-16T11:34:18.273Z,13.40
2018-05-16T11:36:45.752Z,13.60
2018-05-16T11:39:13.326Z,13.70
2018-05-16T11:41:41.143Z,13.60
2018-05-16T11:44:08.694Z,13.50
2018-05-16T11:46:37.031Z,13.30
2018-05-16T11:49:04.591Z,13.30
2018-05-16T11:51:32.175Z,13.30
2018-05-16T11:54:00.503Z,13.80
2018-05-16T11:56:28.052Z,13.80
2018-05-16T11:58:55.641Z,14.30
2018-05-16T12:01:23.200Z,14.60
2018-05-16T12:03:50.756Z,14.60
2018-05-16T12:06:18.317Z,14.70
2018-05-16T12:08:45.886Z,14.80
2018-05-16T12:11:13.444Z,15.10
2018-05-16T12:13:42.707Z,15.20
2018-05-16T12:16:10.291Z,14.80
2018-05-16T12:18:37.845Z,14.90
2018-05-16T12:21:05.429Z,15.10
2018-05-16T12:23:32.996Z,15.40
2018-05-16T12:26:00.545Z,16.00
2018-05-16T12:28:28.118Z,16.60
2018-05-16T12:30:55.674Z,16.90
2018-05-16T12:33:23.217Z,16.60
2018-05-16T12:35:50.806Z,16.50
2018-05-16T12:38:19.219Z,17.50
2018-05-16T12:40:46.764Z,17.50
2018-05-16T12:43:19.291Z,17.50
2018-05-16T12:45:46.873Z,18.10
2018-05-16T12:48:15.267Z,17.90
2018-05-16T12:50:43.617Z,18.00
2018-05-16T12:53:17.080Z,18.00
2018-05-16T12:55:45.435Z,16.50
2018-05-16T12:58:12.996Z,16.40
2018-05-16T13:00:40.544Z,16.20
2018-05-16T13:03:09.815Z,15.90
2018-05-16T13:05:38.159Z,15.50
2018-05-16T13:08:05.743Z,15.40
2018-05-16T13:10:33.297Z,15.50
2018-05-16T13:13:00.882Z,15.70
2018-05-16T13:15:28.442Z,15.90
2018-05-16T13:18:16.584Z,15.70
2018-05-16T13:20:44.926Z,15.50
2018-05-16T13:23:12.482Z,15.40
2018-05-16T13:25:40.791Z,16.00
2018-05-16T13:28:08.365Z,16.00
2018-05-16T13:30:36.679Z,16.50
2018-05-16T13:33:04.228Z,16.50
2018-05-16T13:35:31.804Z,16.30
2018-05-16T13:37:59.354Z,16.40
2018-05-16T13:40:26.899Z,16.60
2018-05-16T13:42:57.785Z,16.20
2018-05-16T13:45:25.340Z,16.40
2018-05-16T13:47:52.901Z,16.50
2018-05-16T13:50:20.439Z,16.70
2018-05-16T13:52:48.011Z,16.40
2018-05-16T13:55:15.565Z,16.60
2018-05-16T13:57:43.116Z,16.50
2018-05-16T14:00:10.718Z,16.60
2018-05-16T14:02:38.263Z,16.60
2018-05-16T14:05:05.821Z,16.80
2018-05-16T14:07:33.405Z,16.90
2018-05-16T14:10:01.742Z,17.20
2018-05-16T14:12:29.321Z,17.20
2018-05-16T14:14:56.895Z,17.70
2018-05-16T14:17:25.206Z,17.50
2018-05-16T14:19:52.782Z,17.50
2018-05-16T14:22:20.340Z,17.20
2018-05-16T14:24:48.225Z,16.50
2018-05-16T14:27:18.934Z,16.30
2018-05-16T14:29:46.478Z,16.40
2018-05-16T14:32:14.097Z,16.30
2018-05-16T14:34:41.665Z,16.00
2018-05-16T14:37:09.210Z,15.90
2018-05-16T14:39:36.770Z,16.10
2018-05-16T14:42:04.344Z,15.80
2018-05-16T14:44:31.895Z,15.80
2018-05-16T14:46:59.496Z,15.60
2018-05-16T14:49:27.021Z,15.50
2018-05-16T14:51:54.576Z,15.50
2018-05-16T14:54:22.989Z,15.40
2018-05-16T14:56:50.566Z,15.30
2018-05-16T14:59:18.109Z,14.90
2018-05-16T15:01:45.663Z,14.30
2018-05-16T15:04:13.401Z,13.70
2018-05-16T15:06:40.943Z,13.30
2018-05-16T15:09:08.489Z,13.10
2018-05-16T15:11:36.050Z,12.70
2018-05-16T15:14:03.611Z,12.50
2018-05-16T15:16:34.098Z,12.30
2018-05-16T15:19:01.678Z,12.30
2018-05-16T15:21:29.225Z,12.20
2018-05-16T15:23:56.776Z,12.20
2018-05-16T15:26:24.679Z,12.20
2018-05-16T15:28:52.232Z,12.40
2018-05-16T15:31:19.780Z,12.40
2018-05-16T15:33:47.360Z,12.60
2018-05-16T15:36:14.906Z,12.70
2018-05-16T15:38:42.461Z,12.80
2018-05-16T15:41:10.041Z,12.90
2018-05-16T15:43:37.598Z,12.80
2018-05-16T15:46:05.149Z,12.90
2018-05-16T15:48:32.718Z,13.00
2018-05-16T15:51:00.266Z,13.00
2018-05-16T15:53:27.839Z,13.00
2018-05-16T15:55:55.398Z,13.00
2018-05-16T15:58:22.945Z,13.30
2018-05-16T16:00:50.558Z,13.40
2018-05-16T16:03:18.118Z,13.60
2018-05-16T16:05:46.442Z,14.00
2018-05-16T16:08:14.138Z,13.90
2018-05-16T16:10:41.599Z,14.00
2018-05-16T16:13:09.181Z,13.80
2018-05-16T16:15:37.493Z,13.90
2018-05-16T16:18:05.126Z,13.90
2018-05-16T16:20:32.696Z,14.00
2018-05-16T16:23:00.955Z,14.10
2018-05-16T16:25:28.910Z,13.70
2018-05-16T16:27:57.258Z,13.50
2018-05-16T16:30:25.758Z,13.40
2018-05-16T16:32:53.310Z,13.40
2018-05-16T16:35:20.900Z,13.30
2018-05-16T16:37:49.223Z,13.20
2018-05-16T16:40:16.781Z,13.20
2018-05-16T16:42:44.798Z,13.30
2018-05-16T16:45:13.110Z,13.30
2018-05-16T16:47:40.884Z,13.30
2018-05-16T16:50:08.559Z,13.20
2018-05-16T16:52:36.082Z,13.20
2018-05-16T16:55:03.646Z,13.20
2018-05-16T16:57:31.215Z,13.30
2018-05-16T16:59:58.792Z,13.30
2018-05-16T17:02:27.060Z,13.40
2018-05-16T17:04:54.660Z,13.40
2018-05-16T17:07:22.203Z,13.60
2018-05-16T17:09:49.755Z,13.70
2018-05-16T17:12:17.328Z,13.90
2018-05-16T17:14:44.888Z,14.00
2018-05-16T17:17:12.441Z,14.00
2018-05-16T17:19:40.029Z,14.20
2018-05-16T17:22:08.343Z,14.30
2018-05-16T17:24:35.884Z,14.30
2018-05-16T17:27:08.297Z,14.50
2018-05-16T17:29:35.834Z,14.40
2018-05-16T17:32:04.006Z,14.30
2018-05-16T17:34:31.581Z,14.40
2018-05-16T17:36:59.134Z,14.40
2018-05-16T17:39:26.686Z,14.40
2018-05-16T17:41:54.325Z,14.30
2018-05-16T17:44:25.401Z,14.20
2018-05-16T17:46:53.045Z,14.20
2018-05-16T17:49:20.578Z,14.20
2018-05-16T17:51:49.504Z,14.10
2018-05-16T17:54:17.053Z,14.10
2018-05-16T17:56:44.627Z,14.10
2018-05-16T17:59:12.196Z,14.00
2018-05-16T18:01:39.754Z,14.00
2018-05-16T18:04:07.318Z,13.90
2018-05-16T18:06:35.606Z,13.90
2018-05-16T18:09:03.163Z,13.90
2018-05-16T18:11:30.742Z,13.90
2018-05-16T18:14:10.147Z,13.80
2018-05-16T18:16:52.557Z,13.80
2018-05-16T18:19:39.304Z,13.70
2018-05-16T18:22:06.874Z,13.60
2018-05-16T18:24:35.193Z,13.50
2018-05-16T18:27:02.748Z,13.50
2018-05-16T18:29:30.321Z,13.50
2018-05-16T18:34:58.280Z,13.40
2018-05-16T18:37:25.877Z,13.40
2018-05-16T18:39:53.552Z,13.40
2018-05-16T18:42:21.906Z,13.40
2018-05-16T18:44:49.777Z,13.40
2018-05-16T18:47:19.277Z,13.40
2018-05-16T18:49:46.861Z,13.40
2018-05-16T18:52:14.416Z,13.40
2018-05-16T18:54:42.582Z,13.40
2018-05-16T18:57:10.913Z,13.30
2018-05-16T18:59:38.487Z,13.30
2018-05-16T19:02:06.699Z,13.30
2018-05-16T19:04:34.281Z,13.30
2018-05-16T19:07:01.856Z,13.20
2018-05-16T19:09:30.179Z,13.10
2018-05-16T19:11:57.760Z,13.00
2018-05-16T19:14:26.063Z,13.10
2018-05-16T19:16:54.659Z,13.00
2018-05-16T19:19:25.046Z,13.00
2018-05-16T19:21:52.612Z,13.00
2018-05-16T19:24:20.182Z,13.00
2018-05-16T19:26:47.765Z,12.90
2018-05-16T19:29:16.489Z,12.90
2018-05-16T19:31:44.106Z,12.90
2018-05-16T19:34:11.687Z,12.80
2018-05-16T19:36:47.560Z,12.80
2018-05-16T19:39:15.157Z,12.80
2018-05-16T19:41:53.412Z,12.70
2018-05-16T19:44:20.986Z,12.70
2018-05-16T19:46:50.494Z,12.70
2018-05-16T19:49:19.464Z,12.70
2018-05-16T19:51:47.056Z,12.70
2018-05-16T19:54:14.978Z,12.70
2018-05-16T19:56:43.303Z,12.70
2018-05-16T19:59:14.729Z,12.70
2018-05-16T20:01:42.276Z,12.70
2018-05-16T20:04:09.845Z,12.60
2018-05-16T20:06:37.477Z,12.60
2018-05-16T20:09:05.940Z,12.40
2018-05-16T20:11:34.764Z,12.30
2018-05-16T20:14:03.109Z,12.30
2018-05-16T20:16:30.665Z,12.20
2018-05-16T20:18:58.244Z,12.20
2018-05-16T20:21:26.576Z,12.10
2018-05-16T20:23:54.161Z,12.00
2018-05-16T20:26:21.790Z,12.00
2018-05-16T20:28:50.371Z,11.80
2018-05-16T20:31:17.979Z,11.70
2018-05-16T20:33:46.206Z,11.70
2018-05-16T20:36:13.754Z,11.70
2018-05-16T20:38:41.326Z,11.60
2018-05-16T20:41:21.358Z,11.60
2018-05-16T20:43:48.953Z,11.60
2018-05-16T20:46:16.501Z,11.50
2018-05-16T20:48:44.046Z,11.50
2018-05-16T20:51:11.626Z,11.40
2018-05-16T20:53:39.173Z,11.40
2018-05-16T20:56:06.712Z,11.40
2018-05-16T20:58:55.093Z,11.40
2018-05-16T21:01:22.572Z,11.50
2018-05-16T21:03:50.141Z,11.40
2018-05-16T21:06:17.706Z,11.40
2018-05-16T21:09:05.909Z,11.50
2018-05-16T21:11:36.451Z,11.60
2018-05-16T21:14:05.335Z,11.70
2018-05-16T21:16:33.138Z,11.70
2018-05-16T21:19:01.537Z,11.80
2018-05-16T21:21:29.878Z,11.80
2018-05-16T21:23:57.437Z,11.80
2018-05-16T21:26:25.025Z,11.90
2018-05-16T21:28:53.346Z,11.90
2018-05-16T21:31:20.906Z,11.90
2018-05-16T21:33:48.485Z,11.90
2018-05-16T21:36:16.061Z,11.90
2018-05-16T21:38:43.623Z,11.90
2018-05-16T21:41:11.218Z,11.90
2018-05-16T21:43:38.794Z,11.90
2018-05-16T21:46:06.386Z,11.90
2018-05-16T21:48:33.954Z,11.90
2018-05-16T21:51:01.525Z,11.90
2018-05-16T21:53:29.105Z,11.90
2018-05-16T21:55:57.486Z,11.90
2018-05-16T21:58:25.037Z,11.80
2018-05-16T22:00:53.374Z,11.90
2018-05-16T22:03:20.946Z,11.90
2018-05-16T22:05:48.504Z,11.90
2018-05-16T22:08:16.098Z,11.90
2018-05-16T22:10:44.422Z,11.90
2018-05-16T22:13:11.985Z,11.90
2018-05-16T22:15:39.570Z,11.90
2018-05-16T22:18:07.109Z,11.90
2018-05-16T22:20:34.674Z,11.90
2018-05-16T22:23:02.281Z,11.90
2018-05-16T22:25:29.836Z,11.90
2018-05-16T22:27:57.393Z,11.90
2018-05-16T22:30:30.571Z,11.90
2018-05-16T22:33:04.469Z,11.90
2018-05-16T22:35:38.430Z,11.90
2018-05-16T22:38:11.719Z,11.90
2018-05-16T22:40:45.048Z,11.90
2018-05-16T22:43:12.126Z,11.90
2018-05-16T22:45:46.206Z,11.80
2018-05-16T22:48:13.767Z,11.80
2018-05-16T22:50:41.329Z,11.80
2018-05-16T22:53:08.903Z,11.70
2018-05-16T22:55:36.463Z,11.70
2018-05-16T22:58:04.024Z,11.70
2018-05-16T23:00:31.631Z,11.70
2018-05-16T23:02:59.199Z,11.70
2018-05-16T23:05:26.753Z,11.70
2018-05-16T23:07:54.336Z,11.70
2018-05-16T23:10:21.901Z,11.70
2018-05-16T23:12:49.470Z,11.70
2018-05-16T23:15:17.057Z,11.70
2018-05-16T23:17:45.369Z,11.70
2018-05-16T23:20:12.934Z,11.70
2018-05-16T23:22:40.514Z,11.70
2018-05-16T23:25:08.075Z,11.60
2018-05-16T23:27:35.625Z,11.60
2018-05-16T23:30:03.217Z,11.60
2018-05-16T23:32:31.531Z,11.50
2018-05-16T23:34:59.086Z,11.50
2018-05-16T23:37:26.666Z,11.50
2018-05-16T23:39:54.239Z,11.40
2018-05-16T23:42:21.798Z,11.40
2018-05-16T23:44:49.377Z,11.40
2018-05-16T23:47:16.936Z,11.40
2018-05-16T23:49:44.497Z,11.40
2018-05-16T23:52:12.079Z,11.40
2018-05-16T23:54:40.399Z,11.50
2018-05-16T23:57:07.966Z,11.50
2018-05-16T23:59:35.571Z,11.50
